createdAt,value
2023-04-10T00:00:13.308Z,11.20
2023-04-10T00:05:16.255Z,11.00
2023-04-10T00:10:18.221Z,10.90
2023-04-10T00:15:20.145Z,10.80
2023-04-10T00:20:23.160Z,10.80
2023-04-10T00:25:26.426Z,10.80
2023-04-10T00:30:28.496Z,10.80
2023-04-10T00:35:30.607Z,10.70
2023-04-10T00:40:32.598Z,10.60
2023-04-10T00:45:34.573Z,10.50
2023-04-10T00:50:36.590Z,10.40
2023-04-10T00:55:38.446Z,10.20
2023-04-10T01:00:41.378Z,10.00
2023-04-10T01:06:01.464Z,10.00
2023-04-10T01:11:22.094Z,10.00
2023-04-10T01:16:23.909Z,10.00
2023-04-10T01:21:28.018Z,10.00
2023-04-10T01:27:07.738Z,10.00
2023-04-10T01:32:13.076Z,10.00
2023-04-10T01:37:41.884Z,9.80
2023-04-10T01:42:53.363Z,9.80
2023-04-10T01:47:58.933Z,9.80
2023-04-10T01:53:02.746Z,9.70
2023-04-10T01:58:06.180Z,9.70
2023-04-10T02:03:08.830Z,9.60
2023-04-10T02:08:21.931Z,9.50
2023-04-10T02:13:27.730Z,9.40
2023-04-10T02:18:31.552Z,9.30
2023-04-10T02:23:35.824Z,9.20
2023-04-10T02:28:40.405Z,9.00
2023-04-10T02:33:42.225Z,9.00
2023-04-10T02:38:44.052Z,8.90
2023-04-10T02:43:47.768Z,8.90
2023-04-10T02:48:49.759Z,8.90
2023-04-10T02:53:53.358Z,8.90
2023-04-10T02:59:03.814Z,8.90
2023-04-10T03:04:06.673Z,8.80
2023-04-10T03:09:13.291Z,8.70
2023-04-10T03:14:15.623Z,8.60
2023-04-10T03:19:17.537Z,8.50
2023-04-10T03:24:19.580Z,8.50
2023-04-10T03:29:21.505Z,8.40
2023-04-10T03:34:23.468Z,8.30
2023-04-10T03:39:25.584Z,8.20
2023-04-10T03:44:28.721Z,8.20
2023-04-10T03:49:30.617Z,8.20
2023-04-10T03:54:38.960Z,8.10
2023-04-10T03:59:42.180Z,8.00
2023-04-10T04:04:48.837Z,8.00
2023-04-10T04:10:13.912Z,8.10
2023-04-10T04:15:42.613Z,8.10
2023-04-10T04:20:53.680Z,8.00
2023-04-10T04:26:14.582Z,7.90
2023-04-10T04:31:38.041Z,7.80
2023-04-10T04:37:06.178Z,7.90
2023-04-10T04:42:31.712Z,7.90
2023-04-10T04:47:59.989Z,7.90
2023-04-10T04:53:09.946Z,7.80
2023-04-10T04:58:24.589Z,7.70
2023-04-10T05:03:35.898Z,7.60
2023-04-10T05:08:56.628Z,7.70
2023-04-10T05:14:27.760Z,7.50
2023-04-10T05:19:53.555Z,7.50
2023-04-10T05:25:15.443Z,7.50
2023-04-10T05:30:35.779Z,7.50
2023-04-10T05:36:07.401Z,7.50
2023-04-10T05:41:26.225Z,7.50
2023-04-10T05:46:54.338Z,7.60
2023-04-10T05:52:28.494Z,7.70
2023-04-10T05:58:01.586Z,7.80
2023-04-10T06:03:30.866Z,7.90
2023-04-10T06:08:36.341Z,8.00
2023-04-10T06:13:38.565Z,8.00
2023-04-10T06:18:41.529Z,8.00
2023-04-10T06:23:45.304Z,8.00
2023-04-10T06:28:47.287Z,8.20
2023-04-10T06:33:51.088Z,8.30
2023-04-10T06:38:53.689Z,8.40
2023-04-10T06:43:55.931Z,8.60
2023-04-10T06:48:58.000Z,8.70
2023-04-10T06:54:00.003Z,8.80
2023-04-10T06:59:02.046Z,8.90
2023-04-10T07:04:04.196Z,9.10
2023-04-10T07:09:06.190Z,9.30
2023-04-10T07:14:08.257Z,9.60
2023-04-10T07:19:10.429Z,9.70
2023-04-10T07:24:12.396Z,9.90
2023-04-10T07:29:14.578Z,10.10
2023-04-10T07:34:16.488Z,10.20
2023-04-10T07:39:18.602Z,10.30
2023-04-10T07:44:20.836Z,10.40
2023-04-10T07:49:23.341Z,10.60
2023-04-10T07:54:25.656Z,10.70
2023-04-10T07:59:28.843Z,10.80
2023-04-10T08:04:31.268Z,11.00
2023-04-10T08:09:33.247Z,11.10
2023-04-10T08:14:35.327Z,11.30
2023-04-10T08:19:37.394Z,11.40
2023-04-10T08:24:39.507Z,11.90
2023-04-10T08:29:41.678Z,12.40
2023-04-10T08:34:43.714Z,13.20
2023-04-10T08:39:46.000Z,13.80
2023-04-10T08:44:49.517Z,14.10
2023-04-10T08:49:56.902Z,14.50
2023-04-10T08:55:01.953Z,14.70
2023-04-10T09:00:12.723Z,14.80
2023-04-10T09:05:27.359Z,14.60
2023-04-10T09:10:47.712Z,14.60
2023-04-10T09:16:00.618Z,14.60
2023-04-10T09:21:10.935Z,14.70
2023-04-10T09:26:36.629Z,14.90
2023-04-10T09:31:40.178Z,15.00
2023-04-10T09:36:57.437Z,15.10
2023-04-10T09:41:59.730Z,15.20
2023-04-10T09:47:13.788Z,15.30
2023-04-10T09:52:20.071Z,15.50
2023-04-10T09:57:23.301Z,15.70
2023-04-10T10:02:29.170Z,15.90
2023-04-10T10:07:32.160Z,16.10
2023-04-10T10:12:59.865Z,16.20
2023-04-10T10:18:26.850Z,16.40
2023-04-10T10:23:29.118Z,16.60
2023-04-10T10:28:32.946Z,16.60
2023-04-10T10:33:41.838Z,16.80
2023-04-10T10:39:13.553Z,16.90
2023-04-10T10:44:59.447Z,17.10
2023-04-10T10:50:03.141Z,17.20
2023-04-10T10:55:23.886Z,17.40
2023-04-10T11:00:27.485Z,17.60
2023-04-10T11:05:52.474Z,17.70
2023-04-10T11:11:05.980Z,18.00
2023-04-10T11:16:12.681Z,18.30
2023-04-10T11:21:23.905Z,18.50
2023-04-10T11:26:44.058Z,18.70
2023-04-10T11:31:47.699Z,18.70
2023-04-10T11:36:49.908Z,18.60
2023-04-10T11:41:53.246Z,18.60
2023-04-10T11:46:55.166Z,18.70
2023-04-10T11:51:57.185Z,19.10
2023-04-10T11:57:17.422Z,19.10
2023-04-10T12:02:19.393Z,19.20
2023-04-10T12:07:24.042Z,19.40
2023-04-10T12:12:52.470Z,19.40
2023-04-10T12:17:55.569Z,19.60
2023-04-10T12:23:01.401Z,19.90
2023-04-10T12:28:03.198Z,20.20
2023-04-10T12:33:07.482Z,20.40
2023-04-10T12:38:09.352Z,20.40
2023-04-10T12:43:11.278Z,20.60
2023-04-10T12:48:22.488Z,20.60
2023-04-10T12:53:25.443Z,20.70
2023-04-10T12:58:28.288Z,21.00
2023-04-10T13:03:30.856Z,20.90
2023-04-10T13:08:33.240Z,21.10
2023-04-10T13:13:35.533Z,21.20
2023-04-10T13:18:37.315Z,21.30
2023-04-10T13:23:39.384Z,21.40
2023-04-10T13:28:41.240Z,21.50
2023-04-10T13:33:49.357Z,21.50
2023-04-10T13:38:51.249Z,21.20
2023-04-10T13:43:53.448Z,21.10
2023-04-10T13:48:55.888Z,21.30
2023-04-10T13:53:58.856Z,21.30
2023-04-10T13:59:00.756Z,21.00
2023-04-10T14:04:03.400Z,21.10
2023-04-10T14:09:05.286Z,21.10
2023-04-10T14:14:07.140Z,21.20
2023-04-10T14:19:09.000Z,21.20
2023-04-10T14:24:11.267Z,21.40
2023-04-10T14:29:14.784Z,21.20
2023-04-10T14:34:18.899Z,21.10
2023-04-10T14:39:20.666Z,21.10
2023-04-10T14:44:22.480Z,21.20
2023-04-10T14:49:24.464Z,21.40
2023-04-10T14:54:26.361Z,21.00
2023-04-10T14:59:28.373Z,21.10
2023-04-10T15:04:30.387Z,21.10
2023-04-10T15:09:32.618Z,21.20
2023-04-10T15:14:34.623Z,21.20
2023-04-10T15:19:36.419Z,21.20
2023-04-10T15:24:50.101Z,21.20
2023-04-10T15:29:52.607Z,21.20
2023-04-10T15:34:54.465Z,21.00
2023-04-10T15:39:56.307Z,20.90
2023-04-10T15:44:58.109Z,20.90
2023-04-10T15:50:00.004Z,20.70
2023-04-10T15:55:01.889Z,20.40
2023-04-10T16:00:04.507Z,20.70
2023-04-10T16:05:08.967Z,20.70
2023-04-10T16:10:11.499Z,20.50
2023-04-10T16:15:13.816Z,20.30
2023-04-10T16:20:15.801Z,20.30
2023-04-10T16:25:19.557Z,20.30
2023-04-10T16:30:24.023Z,20.30
2023-04-10T16:35:26.020Z,20.20
2023-04-10T16:40:32.487Z,20.10
2023-04-10T16:45:34.733Z,20.00
2023-04-10T16:50:36.910Z,20.00
2023-04-10T16:55:38.861Z,20.00
2023-04-10T17:00:40.936Z,20.10
2023-04-10T17:05:42.925Z,20.10
2023-04-10T17:10:44.870Z,20.10
2023-04-10T17:15:46.781Z,20.10
2023-04-10T17:20:49.065Z,20.00
2023-04-10T17:25:51.121Z,19.90
2023-04-10T17:30:52.999Z,19.90
2023-04-10T17:35:55.686Z,19.70
2023-04-10T17:40:57.681Z,19.60
2023-04-10T17:46:00.147Z,19.50
2023-04-10T17:51:06.924Z,19.50
2023-04-10T17:56:16.757Z,19.50
2023-04-10T18:01:29.486Z,19.50
2023-04-10T18:06:31.918Z,19.50
2023-04-10T18:11:33.884Z,19.50
2023-04-10T18:16:36.119Z,19.60
2023-04-10T18:21:38.242Z,19.60
2023-04-10T18:26:40.790Z,19.60
2023-04-10T18:31:42.770Z,19.60
2023-04-10T18:36:44.751Z,19.50
2023-04-10T18:41:46.701Z,19.50
2023-04-10T18:46:57.406Z,19.50
2023-04-10T18:52:00.439Z,19.40
2023-04-10T18:57:02.419Z,19.30
2023-04-10T19:02:05.948Z,19.30
2023-04-10T19:07:10.706Z,19.30
2023-04-10T19:12:12.710Z,19.30
2023-04-10T19:17:14.621Z,19.20
2023-04-10T19:22:17.138Z,19.00
2023-04-10T19:27:19.141Z,18.90
2023-04-10T19:32:21.074Z,18.90
2023-04-10T19:37:23.077Z,18.90
2023-04-10T19:42:25.067Z,18.90
2023-04-10T19:47:27.082Z,18.80
2023-04-10T19:52:28.964Z,18.70
2023-04-10T19:57:30.960Z,18.60
2023-04-10T20:02:33.314Z,18.50
2023-04-10T20:07:35.782Z,18.40
2023-04-10T20:12:37.846Z,18.40
2023-04-10T20:17:39.896Z,18.40
2023-04-10T20:22:41.914Z,18.30
2023-04-10T20:27:43.826Z,18.30
2023-04-10T20:32:46.978Z,18.30
2023-04-10T20:37:49.235Z,18.20
2023-04-10T20:42:52.784Z,18.10
2023-04-10T20:47:57.376Z,18.00
2023-04-10T20:52:59.470Z,17.90
2023-04-10T20:58:01.425Z,17.70
2023-04-10T21:03:03.483Z,17.70
2023-04-10T21:08:05.633Z,17.60
2023-04-10T21:13:07.510Z,17.50
2023-04-10T21:18:09.718Z,17.50
2023-04-10T21:23:11.585Z,17.50
2023-04-10T21:28:13.564Z,17.50
2023-04-10T21:33:15.749Z,17.50
2023-04-10T21:38:17.770Z,17.50
2023-04-10T21:43:21.007Z,17.50
2023-04-10T21:48:23.203Z,17.40
2023-04-10T21:53:25.410Z,17.30
2023-04-10T21:58:27.322Z,17.30
2023-04-10T22:03:29.887Z,17.40
2023-04-10T22:08:31.834Z,17.40
2023-04-10T22:13:33.766Z,17.50
2023-04-10T22:18:35.709Z,17.50
2023-04-10T22:23:37.586Z,17.50
2023-04-10T22:28:39.406Z,17.50
2023-04-10T22:33:41.267Z,17.50
2023-04-10T22:38:43.371Z,17.50
2023-04-10T22:43:45.267Z,17.60
2023-04-10T22:48:47.191Z,17.50
2023-04-10T22:53:49.059Z,17.60
2023-04-10T22:58:51.004Z,17.50
2023-04-10T23:03:53.996Z,17.40
2023-04-10T23:08:56.270Z,17.30
2023-04-10T23:20:02.906Z,17.20
2023-04-10T23:25:05.270Z,17.10
2023-04-10T23:30:17.617Z,17.00
2023-04-10T23:35:19.596Z,17.00
2023-04-10T23:40:53.770Z,17.00
2023-04-10T23:45:55.707Z,17.00
2023-04-10T23:51:08.500Z,17.00
2023-04-10T23:56:10.832Z,16.80
